createdAt,value
2023-01-29T00:09:26.849Z,-3.73
2023-01-29T00:39:33.701Z,-3.54
2023-01-29T01:09:26.620Z,-3.77
2023-01-29T01:39:26.521Z,-3.65
2023-01-29T02:09:26.395Z,-3.57
2023-01-29T02:39:26.287Z,-3.87
2023-01-29T03:09:26.232Z,-3.91
2023-01-29T03:27:59.146Z,-3.6
2023-01-29T03:39:26.186Z,-3.35
2023-01-29T04:09:26.085Z,-3.51
2023-01-29T04:56:58.987Z,-3.19
2023-01-29T05:09:25.966Z,-2.93
2023-01-29T05:22:58.901Z,-2.62
2023-01-29T05:39:25.792Z,-2.38
2023-01-29T06:09:25.694Z,-2.21
2023-01-29T06:39:25.543Z,-2.04
2023-01-29T07:09:25.523Z,-1.84
2023-01-29T07:39:25.365Z,-1.58
2023-01-29T08:09:25.260Z,-1.4
2023-01-29T08:39:25.134Z,-1.13
2023-01-29T09:09:24.959Z,-0.86
2023-01-29T09:31:58.195Z,-0.55
2023-01-29T09:39:24.927Z,-0.4
2023-01-29T10:09:24.822Z,-0.25
2023-01-29T10:39:24.709Z,-0.14
2023-01-29T11:00:58.052Z,0.19
2023-01-29T11:09:24.712Z,0.31
2023-01-29T11:39:24.592Z,0.44
2023-01-29T12:09:24.518Z,0.67
2023-01-29T12:39:24.382Z,0.69
2023-01-29T13:09:24.265Z,0.86
2023-01-29T13:39:24.299Z,0.88
2023-01-29T14:09:24.164Z,0.94
2023-01-29T14:39:24.064Z,0.92
2023-01-29T16:09:23.673Z,0.96
2023-01-29T16:39:23.566Z,0.99
2023-01-29T17:09:23.482Z,1.19
2023-01-29T17:39:23.405Z,1.25
2023-01-29T18:09:23.214Z,1.31
2023-01-29T18:39:23.165Z,1.07
2023-01-29T19:09:23.117Z,1.12
2023-01-29T19:39:22.977Z,1.05
2023-01-29T20:09:22.865Z,1.22
2023-01-29T20:39:22.742Z,1.39
2023-01-29T21:09:22.640Z,1.45
2023-01-29T21:39:22.555Z,1.61
2023-01-29T22:09:22.464Z,1.72
2023-01-29T22:39:22.384Z,1.78
2023-01-29T23:00:56.307Z,2.1
2023-01-29T23:09:22.338Z,2.19
2023-01-29T23:39:22.268Z,2.46
